LHA1605 EDDR-LSZH
Flight info
| Callsign | LHA1605 |
|---|---|
| Flight time | 0h 37m |
| Altitude | 23000 |
| Route | GTQ2L GTQ V17 LUPEN Y711 NATOR T723 RILAX |
| Aircraft | A320/M-SDE3FGHIRWY/LB1 |
Departure
| Time | 2026-05-01 13:54 |
|---|---|
| Airport | Saarbrücken Airport (EDDR) |
Arrival
| Time | 2026-05-01 14:31 |
|---|---|
| Airport | Zürich Airport (LSZH) |
| Time | Latitude | Longitude | Altitude | Speed | Heading |
|---|---|---|---|---|---|
| 2026-05-01 13:35 | 49.21862 | 7.11346 | 1069 ft | 0 kts | 164° |
| 2026-05-01 13:49 | 49.21862 | 7.11345 | 1069 ft | 0 kts | 164° |
| 2026-05-01 13:50 | 49.21862 | 7.11346 | 1069 ft | 0 kts | 164° |
| 2026-05-01 13:50 | 49.21858 | 7.11347 | 1069 ft | 1 kts | 164° |
| 2026-05-01 13:50 | 49.21829 | 7.11353 | 1069 ft | 7 kts | 192° |
| 2026-05-01 13:51 | 49.21790 | 7.11259 | 1067 ft | 14 kts | 248° |
| 2026-05-01 13:51 | 49.21700 | 7.11144 | 1066 ft | 20 kts | 199° |
| 2026-05-01 13:51 | 49.21605 | 7.11003 | 1064 ft | 22 kts | 259° |
| 2026-05-01 13:51 | 49.21595 | 7.10758 | 1061 ft | 25 kts | 272° |
| 2026-05-01 13:52 | 49.21594 | 7.10481 | 1058 ft | 28 kts | 263° |
| 2026-05-01 13:52 | 49.21585 | 7.10181 | 1054 ft | 29 kts | 270° |
| 2026-05-01 13:52 | 49.21527 | 7.09877 | 1052 ft | 27 kts | 242° |
| 2026-05-01 13:52 | 49.21436 | 7.09683 | 1050 ft | 15 kts | 180° |
| 2026-05-01 13:53 | 49.21421 | 7.09759 | 1050 ft | 6 kts | 86° |
| 2026-05-01 13:53 | 49.21445 | 7.10797 | 1060 ft | 116 kts | 87° |
| 2026-05-01 13:53 | 49.21489 | 7.12204 | 1464 ft | 135 kts | 88° |
| 2026-05-01 13:54 | 49.21525 | 7.13653 | 2203 ft | 137 kts | 88° |
| 2026-05-01 13:54 | 49.21571 | 7.15187 | 2685 ft | 155 kts | 88° |
| 2026-05-01 13:54 | 49.21623 | 7.16941 | 3018 ft | 176 kts | 89° |
| 2026-05-01 13:54 | 49.21591 | 7.18933 | 3396 ft | 199 kts | 106° |
| 2026-05-01 13:55 | 49.20733 | 7.20643 | 3902 ft | 215 kts | 151° |
| 2026-05-01 13:55 | 49.19258 | 7.20960 | 4764 ft | 223 kts | 191° |
| 2026-05-01 13:55 | 49.17785 | 7.20178 | 5664 ft | 226 kts | 200° |
| 2026-05-01 13:55 | 49.16374 | 7.19104 | 6548 ft | 230 kts | 216° |
| 2026-05-01 13:56 | 49.15391 | 7.17145 | 7340 ft | 242 kts | 246° |
| 2026-05-01 13:56 | 49.15131 | 7.14484 | 7792 ft | 268 kts | 270° |
| 2026-05-01 13:56 | 49.15153 | 7.11524 | 8363 ft | 286 kts | 269° |
| 2026-05-01 13:56 | 49.15171 | 7.08445 | 9223 ft | 293 kts | 269° |
| 2026-05-01 13:57 | 49.15184 | 7.05315 | 10117 ft | 297 kts | 269° |
| 2026-05-01 13:57 | 49.15116 | 7.03217 | 10666 ft | 300 kts | 261° |
| 2026-05-01 13:57 | 49.14267 | 6.99055 | 11389 ft | 321 kts | 239° |
| 2026-05-01 13:57 | 49.12929 | 6.96202 | 11693 ft | 342 kts | 226° |
| 2026-05-01 13:58 | 49.11303 | 6.93436 | 12218 ft | 356 kts | 226° |
| 2026-05-01 13:58 | 49.09664 | 6.90632 | 12966 ft | 362 kts | 226° |
| 2026-05-01 13:58 | 49.07986 | 6.87744 | 13756 ft | 366 kts | 226° |
| 2026-05-01 13:58 | 49.06291 | 6.84821 | 14533 ft | 370 kts | 227° |
| 2026-05-01 13:59 | 49.04579 | 6.81865 | 15283 ft | 374 kts | 227° |
| 2026-05-01 13:59 | 49.02834 | 6.78917 | 16002 ft | 377 kts | 223° |
| 2026-05-01 13:59 | 49.00748 | 6.76501 | 16699 ft | 378 kts | 207° |
| 2026-05-01 13:59 | 48.98319 | 6.74973 | 17366 ft | 379 kts | 193° |
| 2026-05-01 14:00 | 48.95709 | 6.74449 | 18004 ft | 380 kts | 178° |
| 2026-05-01 14:00 | 48.93086 | 6.74987 | 18630 ft | 383 kts | 163° |
| 2026-05-01 14:00 | 48.90587 | 6.76383 | 19260 ft | 384 kts | 157° |
| 2026-05-01 14:00 | 48.88087 | 6.77881 | 19831 ft | 389 kts | 157° |
| 2026-05-01 14:01 | 48.85554 | 6.79387 | 20399 ft | 393 kts | 157° |
| 2026-05-01 14:01 | 48.82996 | 6.80898 | 20960 ft | 397 kts | 158° |
| 2026-05-01 14:01 | 48.80413 | 6.82415 | 21493 ft | 400 kts | 158° |
| 2026-05-01 14:01 | 48.77798 | 6.83947 | 22021 ft | 404 kts | 158° |
| 2026-05-01 14:02 | 48.75168 | 6.85491 | 22531 ft | 408 kts | 158° |
| 2026-05-01 14:02 | 48.72510 | 6.87054 | 23029 ft | 411 kts | 158° |
| 2026-05-01 14:02 | 48.69830 | 6.88625 | 23236 ft | 414 kts | 158° |
| 2026-05-01 14:02 | 48.67125 | 6.90207 | 23289 ft | 420 kts | 158° |
| 2026-05-01 14:03 | 48.64386 | 6.91808 | 23283 ft | 423 kts | 158° |
| 2026-05-01 14:03 | 48.61641 | 6.93413 | 23282 ft | 423 kts | 158° |
| 2026-05-01 14:03 | 48.58897 | 6.95013 | 23292 ft | 423 kts | 158° |
| 2026-05-01 14:03 | 48.56147 | 6.96614 | 23271 ft | 424 kts | 158° |
| 2026-05-01 14:04 | 48.53438 | 6.98365 | 23280 ft | 423 kts | 150° |
| 2026-05-01 14:04 | 48.51023 | 7.00863 | 23284 ft | 421 kts | 137° |
| 2026-05-01 14:04 | 48.49040 | 7.04082 | 23276 ft | 419 kts | 125° |
| 2026-05-01 14:04 | 48.48011 | 7.06540 | 23283 ft | 418 kts | 116° |
| 2026-05-01 14:05 | 48.46710 | 7.12024 | 23281 ft | 416 kts | 100° |
| 2026-05-01 14:05 | 48.46393 | 7.16347 | 23279 ft | 415 kts | 93° |
| 2026-05-01 14:05 | 48.46180 | 7.20675 | 23302 ft | 415 kts | 94° |
| 2026-05-01 14:05 | 48.45960 | 7.25010 | 23297 ft | 415 kts | 94° |
| 2026-05-01 14:06 | 48.45742 | 7.29349 | 23290 ft | 415 kts | 93° |
| 2026-05-01 14:06 | 48.45529 | 7.33683 | 23283 ft | 415 kts | 93° |
| 2026-05-01 14:06 | 48.45316 | 7.38027 | 23266 ft | 415 kts | 93° |
| 2026-05-01 14:06 | 48.45105 | 7.42364 | 23262 ft | 415 kts | 93° |
| 2026-05-01 14:07 | 48.44887 | 7.46695 | 23270 ft | 415 kts | 93° |
| 2026-05-01 14:07 | 48.44663 | 7.51026 | 23275 ft | 415 kts | 94° |
| 2026-05-01 14:07 | 48.44435 | 7.55368 | 23275 ft | 416 kts | 94° |
| 2026-05-01 14:08 | 48.43983 | 7.64029 | 23271 ft | 415 kts | 94° |
| 2026-05-01 14:08 | 48.43714 | 7.68351 | 23267 ft | 415 kts | 98° |
| 2026-05-01 14:08 | 48.43040 | 7.72577 | 23259 ft | 416 kts | 108° |
| 2026-05-01 14:08 | 48.41887 | 7.76584 | 23258 ft | 418 kts | 117° |
| 2026-05-01 14:09 | 48.40312 | 7.80267 | 23258 ft | 419 kts | 123° |
| 2026-05-01 14:09 | 48.38639 | 7.83867 | 23255 ft | 420 kts | 123° |
| 2026-05-01 14:09 | 48.36966 | 7.87462 | 23293 ft | 420 kts | 123° |
| 2026-05-01 14:09 | 48.35323 | 7.91031 | 23293 ft | 420 kts | 123° |
| 2026-05-01 14:10 | 48.33676 | 7.94728 | 23288 ft | 420 kts | 122° |
| 2026-05-01 14:10 | 48.32075 | 7.98403 | 23285 ft | 420 kts | 121° |
| 2026-05-01 14:10 | 48.30506 | 8.02033 | 23308 ft | 419 kts | 121° |
| 2026-05-01 14:10 | 48.28915 | 8.05708 | 23303 ft | 420 kts | 122° |
| 2026-05-01 14:11 | 48.27289 | 8.09430 | 23300 ft | 420 kts | 122° |
| 2026-05-01 14:11 | 48.24084 | 8.16700 | 23285 ft | 420 kts | 122° |
| 2026-05-01 14:11 | 48.22447 | 8.20336 | 23283 ft | 421 kts | 123° |
| 2026-05-01 14:12 | 48.20791 | 8.23952 | 23283 ft | 421 kts | 123° |
| 2026-05-01 14:12 | 48.19121 | 8.27556 | 23281 ft | 421 kts | 124° |
| 2026-05-01 14:12 | 48.17215 | 8.30893 | 23261 ft | 423 kts | 134° |
| 2026-05-01 14:12 | 48.14959 | 8.33715 | 23266 ft | 424 kts | 143° |
| 2026-05-01 14:13 | 48.12438 | 8.36007 | 23282 ft | 425 kts | 149° |
| 2026-05-01 14:13 | 48.10697 | 8.37482 | 23267 ft | 425 kts | 149° |
| 2026-05-01 14:13 | 48.07290 | 8.40361 | 23260 ft | 425 kts | 149° |
| 2026-05-01 14:13 | 48.04718 | 8.42536 | 23281 ft | 425 kts | 149° |
| 2026-05-01 14:14 | 48.02144 | 8.44714 | 23271 ft | 425 kts | 149° |
| 2026-05-01 14:14 | 47.99576 | 8.46888 | 23273 ft | 425 kts | 149° |
| 2026-05-01 14:14 | 47.97004 | 8.49062 | 23264 ft | 425 kts | 149° |
| 2026-05-01 14:14 | 47.94462 | 8.51297 | 23261 ft | 423 kts | 144° |
| 2026-05-01 14:15 | 47.92137 | 8.53973 | 23268 ft | 423 kts | 139° |
| 2026-05-01 14:15 | 47.89870 | 8.56759 | 23267 ft | 423 kts | 139° |
| 2026-05-01 14:15 | 47.87594 | 8.59539 | 23263 ft | 423 kts | 139° |
| 2026-05-01 14:15 | 47.85285 | 8.62344 | 23272 ft | 423 kts | 139° |
| 2026-05-01 14:16 | 47.83032 | 8.65072 | 23270 ft | 423 kts | 139° |
| 2026-05-01 14:16 | 47.80748 | 8.67834 | 23283 ft | 423 kts | 139° |
| 2026-05-01 14:16 | 47.78461 | 8.70596 | 23283 ft | 423 kts | 139° |
| 2026-05-01 14:16 | 47.76177 | 8.73350 | 23283 ft | 423 kts | 139° |
| 2026-05-01 14:17 | 47.73890 | 8.76108 | 23234 ft | 423 kts | 139° |
| 2026-05-01 14:17 | 47.71628 | 8.78838 | 22957 ft | 416 kts | 139° |
| 2026-05-01 14:17 | 47.69400 | 8.81529 | 22421 ft | 410 kts | 139° |
| 2026-05-01 14:17 | 47.67200 | 8.84188 | 21858 ft | 406 kts | 138° |
| 2026-05-01 14:18 | 47.65020 | 8.86818 | 21354 ft | 401 kts | 139° |
| 2026-05-01 14:18 | 47.62978 | 8.89583 | 20827 ft | 395 kts | 130° |
| 2026-05-01 14:18 | 47.61314 | 8.92760 | 20355 ft | 386 kts | 120° |
| 2026-05-01 14:18 | 47.60433 | 8.95028 | 20000 ft | 382 kts | 115° |
| 2026-05-01 14:19 | 47.59027 | 8.98402 | 19009 ft | 392 kts | 129° |
| 2026-05-01 14:19 | 47.56821 | 9.00860 | 18014 ft | 407 kts | 154° |
| 2026-05-01 14:19 | 47.54080 | 9.01688 | 17722 ft | 401 kts | 180° |
| 2026-05-01 14:19 | 47.51423 | 9.00792 | 17641 ft | 388 kts | 204° |
| 2026-05-01 14:20 | 47.49320 | 8.98430 | 17555 ft | 376 kts | 230° |
| 2026-05-01 14:20 | 47.48053 | 8.91328 | 17418 ft | 365 kts | 284° |
| 2026-05-01 14:20 | 47.49068 | 8.87945 | 17334 ft | 360 kts | 309° |
| 2026-05-01 14:21 | 47.50681 | 8.85121 | 16941 ft | 359 kts | 313° |
| 2026-05-01 14:21 | 47.52320 | 8.82338 | 16453 ft | 358 kts | 313° |
| 2026-05-01 14:21 | 47.53951 | 8.79569 | 16218 ft | 355 kts | 313° |
| 2026-05-01 14:22 | 47.57004 | 8.73726 | 14722 ft | 362 kts | 301° |
| 2026-05-01 14:22 | 47.58002 | 8.70314 | 13754 ft | 361 kts | 289° |
| 2026-05-01 14:22 | 47.58955 | 8.66926 | 13101 ft | 349 kts | 298° |
| 2026-05-01 14:22 | 47.59918 | 8.63669 | 12693 ft | 344 kts | 288° |
| 2026-05-01 14:23 | 47.60507 | 8.60244 | 12151 ft | 344 kts | 284° |
| 2026-05-01 14:23 | 47.61244 | 8.56865 | 11503 ft | 347 kts | 296° |
| 2026-05-01 14:23 | 47.62618 | 8.53953 | 10946 ft | 344 kts | 315° |
| 2026-05-01 14:23 | 47.64297 | 8.51523 | 10826 ft | 331 kts | 317° |
| 2026-05-01 14:24 | 47.65956 | 8.49251 | 10697 ft | 319 kts | 319° |
| 2026-05-01 14:24 | 47.67577 | 8.47084 | 10563 ft | 309 kts | 319° |
| 2026-05-01 14:24 | 47.69148 | 8.44984 | 10362 ft | 298 kts | 319° |
| 2026-05-01 14:24 | 47.70686 | 8.42916 | 10297 ft | 294 kts | 319° |
| 2026-05-01 14:25 | 47.72149 | 8.40930 | 10014 ft | 281 kts | 319° |
| 2026-05-01 14:25 | 47.73432 | 8.38791 | 9503 ft | 277 kts | 299° |
| 2026-05-01 14:25 | 47.73945 | 8.36062 | 8886 ft | 275 kts | 269° |
| 2026-05-01 14:25 | 47.73535 | 8.33323 | 8432 ft | 274 kts | 241° |
| 2026-05-01 14:26 | 47.72402 | 8.31070 | 7978 ft | 273 kts | 220° |
| 2026-05-01 14:26 | 47.69011 | 8.28791 | 7004 ft | 275 kts | 183° |
| 2026-05-01 14:26 | 47.67088 | 8.29018 | 6326 ft | 282 kts | 162° |
| 2026-05-01 14:27 | 47.65332 | 8.30225 | 5910 ft | 276 kts | 143° |
| 2026-05-01 14:27 | 47.63884 | 8.32072 | 5544 ft | 273 kts | 135° |
| 2026-05-01 14:27 | 47.62513 | 8.33975 | 5197 ft | 268 kts | 136° |
| 2026-05-01 14:28 | 47.59804 | 8.37709 | 4485 ft | 262 kts | 136° |
| 2026-05-01 14:28 | 47.58482 | 8.39527 | 4138 ft | 256 kts | 136° |
| 2026-05-01 14:28 | 47.57200 | 8.41289 | 3796 ft | 245 kts | 136° |
| 2026-05-01 14:28 | 47.55978 | 8.42965 | 3484 ft | 237 kts | 136° |
| 2026-05-01 14:29 | 47.54764 | 8.44631 | 3177 ft | 239 kts | 136° |
| 2026-05-01 14:29 | 47.53549 | 8.46297 | 2856 ft | 238 kts | 136° |
| 2026-05-01 14:30 | 47.50162 | 8.50931 | 1974 ft | 193 kts | 135° |
| 2026-05-01 14:30 | 47.49242 | 8.52188 | 1753 ft | 169 kts | 135° |
| 2026-05-01 14:30 | 47.48421 | 8.53311 | 1516 ft | 153 kts | 135° |
| 2026-05-01 14:31 | 47.47147 | 8.55056 | 1413 ft | 81 kts | 137° |
| 2026-05-01 14:31 | 47.46821 | 8.55510 | 1410 ft | 45 kts | 137° |
| 2026-05-01 14:31 | 47.46618 | 8.55681 | 1404 ft | 29 kts | 175° |
| 2026-05-01 14:31 | 47.46475 | 8.55719 | 1399 ft | 13 kts | 165° |
| 2026-05-01 14:32 | 47.46396 | 8.55754 | 1401 ft | 11 kts | 155° |
| 2026-05-01 14:32 | 47.46342 | 8.55814 | 1405 ft | 9 kts | 139° |
| 2026-05-01 14:32 | 47.46298 | 8.55870 | 1406 ft | 8 kts | 139° |
| 2026-05-01 14:32 | 47.46260 | 8.55918 | 1408 ft | 7 kts | 139° |
| 2026-05-01 14:33 | 47.46225 | 8.55963 | 1398 ft | 6 kts | 139° |
| 2026-05-01 14:33 | 47.46195 | 8.56008 | 1398 ft | 5 kts | 133° |
| 2026-05-01 14:33 | 47.46172 | 8.56046 | 1403 ft | 4 kts | 133° |
| 2026-05-01 14:33 | 47.46153 | 8.56075 | 1403 ft | 3 kts | 133° |
| 2026-05-01 14:34 | 47.46128 | 8.56115 | 1398 ft | 9 kts | 135° |
| 2026-05-01 14:34 | 47.46076 | 8.56182 | 1407 ft | 9 kts | 139° |
| 2026-05-01 14:34 | 47.46030 | 8.56240 | 1401 ft | 8 kts | 139° |
| 2026-05-01 14:34 | 47.45992 | 8.56288 | 1403 ft | 7 kts | 143° |
| 2026-05-01 14:35 | 47.45952 | 8.56313 | 1400 ft | 6 kts | 175° |
| 2026-05-01 14:35 | 47.45912 | 8.56308 | 1401 ft | 5 kts | 187° |
| 2026-05-01 14:35 | 47.45900 | 8.56306 | 1404 ft | 0 kts | 187° |
| 2026-05-01 14:36 | 47.45894 | 8.56305 | 1404 ft | 5 kts | 187° |
| 2026-05-01 14:36 | 47.45828 | 8.56293 | 1404 ft | 6 kts | 188° |
| 2026-05-01 14:36 | 47.45823 | 8.56292 | 1399 ft | 0 kts | 188° |
| 2026-05-01 14:37 | 47.45789 | 8.56284 | 1404 ft | 10 kts | 188° |
| 2026-05-01 14:37 | 47.45689 | 8.56266 | 1402 ft | 20 kts | 184° |
| 2026-05-01 14:38 | 47.45531 | 8.56242 | 1397 ft | 24 kts | 199° |
| 2026-05-01 14:38 | 47.45487 | 8.56043 | 1401 ft | 23 kts | 276° |
| 2026-05-01 14:38 | 47.45445 | 8.55945 | 1406 ft | 10 kts | 150° |
| 2026-05-01 14:38 | 47.45430 | 8.55947 | 1397 ft | 2 kts | 181° |
| 2026-05-01 14:39 | 47.45421 | 8.55946 | 1399 ft | 1 kts | 183° |
| 2026-05-01 14:39 | 47.45418 | 8.55947 | 1397 ft | 0 kts | 180° |
| 2026-05-01 14:39 | 47.45415 | 8.55947 | 1397 ft | 1 kts | 179° |
| 2026-05-01 14:39 | 47.45412 | 8.55946 | 1397 ft | 0 kts | 181° |